sensor_id;sensor_type;location;lat;lon;timestamp;P1;durP1;ratioP1;P2;durP2;ratioP2
5416;SDS011;2731;50.754;12.990;2022-11-15T00:02:15;24.20;;;13.75;;
5416;SDS011;2731;50.754;12.990;2022-11-15T00:04:43;24.00;;;13.23;;
5416;SDS011;2731;50.754;12.990;2022-11-15T00:07:08;21.45;;;13.10;;
5416;SDS011;2731;50.754;12.990;2022-11-15T00:09:34;20.98;;;12.52;;
5416;SDS011;2731;50.754;12.990;2022-11-15T00:12:00;21.70;;;12.23;;
5416;SDS011;2731;50.754;12.990;2022-11-15T00:14:26;24.73;;;13.27;;
5416;SDS011;2731;50.754;12.990;2022-11-15T00:16:52;20.13;;;12.75;;
5416;SDS011;2731;50.754;12.990;2022-11-15T00:19:18;20.73;;;12.50;;
5416;SDS011;2731;50.754;12.990;2022-11-15T00:21:43;19.55;;;11.65;;
5416;SDS011;2731;50.754;12.990;2022-11-15T00:24:10;21.48;;;12.65;;
5416;SDS011;2731;50.754;12.990;2022-11-15T00:26:35;21.40;;;12.23;;
5416;SDS011;2731;50.754;12.990;2022-11-15T00:29:02;24.35;;;13.15;;
5416;SDS011;2731;50.754;12.990;2022-11-15T00:31:29;23.10;;;13.25;;
5416;SDS011;2731;50.754;12.990;2022-11-15T00:33:54;22.42;;;13.27;;
5416;SDS011;2731;50.754;12.990;2022-11-15T00:36:20;20.20;;;12.38;;
5416;SDS011;2731;50.754;12.990;2022-11-15T00:38:47;20.17;;;11.85;;
5416;SDS011;2731;50.754;12.990;2022-11-15T00:41:13;22.13;;;11.63;;
5416;SDS011;2731;50.754;12.990;2022-11-15T00:43:38;19.92;;;11.77;;
5416;SDS011;2731;50.754;12.990;2022-11-15T00:46:06;20.63;;;12.10;;
5416;SDS011;2731;50.754;12.990;2022-11-15T00:48:33;21.20;;;12.85;;
5416;SDS011;2731;50.754;12.990;2022-11-15T00:51:01;19.80;;;11.98;;
5416;SDS011;2731;50.754;12.990;2022-11-15T00:53:27;19.80;;;12.10;;
5416;SDS011;2731;50.754;12.990;2022-11-15T00:55:52;19.10;;;11.93;;
5416;SDS011;2731;50.754;12.990;2022-11-15T00:58:18;19.10;;;12.27;;
5416;SDS011;2731;50.754;12.990;2022-11-15T01:00:45;20.80;;;12.70;;
5416;SDS011;2731;50.754;12.990;2022-11-15T01:03:12;19.77;;;11.90;;
5416;SDS011;2731;50.754;12.990;2022-11-15T01:05:38;20.13;;;12.02;;
5416;SDS011;2731;50.754;12.990;2022-11-15T01:08:05;18.52;;;10.55;;
5416;SDS011;2731;50.754;12.990;2022-11-15T01:10:33;18.33;;;11.80;;
5416;SDS011;2731;50.754;12.990;2022-11-15T01:12:59;21.15;;;11.63;;
5416;SDS011;2731;50.754;12.990;2022-11-15T01:15:27;22.02;;;12.23;;
5416;SDS011;2731;50.754;12.990;2022-11-15T01:17:53;17.52;;;11.60;;
5416;SDS011;2731;50.754;12.990;2022-11-15T01:20:19;18.85;;;11.07;;
5416;SDS011;2731;50.754;12.990;2022-11-15T01:22:45;18.52;;;10.70;;
5416;SDS011;2731;50.754;12.990;2022-11-15T01:25:10;17.90;;;11.13;;
5416;SDS011;2731;50.754;12.990;2022-11-15T01:27:37;17.55;;;10.85;;
5416;SDS011;2731;50.754;12.990;2022-11-15T01:30:02;15.98;;;10.32;;
5416;SDS011;2731;50.754;12.990;2022-11-15T01:32:30;16.35;;;9.80;;
5416;SDS011;2731;50.754;12.990;2022-11-15T01:34:57;17.23;;;10.43;;
5416;SDS011;2731;50.754;12.990;2022-11-15T01:37:24;21.77;;;11.27;;
5416;SDS011;2731;50.754;12.990;2022-11-15T01:39:51;18.48;;;11.48;;
5416;SDS011;2731;50.754;12.990;2022-11-15T01:42:17;15.55;;;10.38;;
5416;SDS011;2731;50.754;12.990;2022-11-15T01:44:44;22.70;;;11.80;;
5416;SDS011;2731;50.754;12.990;2022-11-15T01:47:16;18.50;;;10.57;;
5416;SDS011;2731;50.754;12.990;2022-11-15T01:50:16;17.58;;;10.95;;
5416;SDS011;2731;50.754;12.990;2022-11-15T01:52:47;16.15;;;10.02;;
5416;SDS011;2731;50.754;12.990;2022-11-15T01:55:25;14.57;;;9.27;;
5416;SDS011;2731;50.754;12.990;2022-11-15T01:57:53;19.20;;;11.30;;
5416;SDS011;2731;50.754;12.990;2022-11-15T02:00:21;18.08;;;10.65;;
5416;SDS011;2731;50.754;12.990;2022-11-15T02:02:47;17.88;;;11.07;;
5416;SDS011;2731;50.754;12.990;2022-11-15T02:05:12;14.68;;;9.40;;
5416;SDS011;2731;50.754;12.990;2022-11-15T02:07:40;16.50;;;9.38;;
5416;SDS011;2731;50.754;12.990;2022-11-15T02:10:09;14.70;;;9.93;;
5416;SDS011;2731;50.754;12.990;2022-11-15T02:12:38;15.98;;;10.20;;
5416;SDS011;2731;50.754;12.990;2022-11-15T02:15:04;17.65;;;10.20;;
5416;SDS011;2731;50.754;12.990;2022-11-15T02:28:51;16.15;;;10.32;;
5416;SDS011;2731;50.754;12.990;2022-11-15T02:40:13;13.93;;;9.40;;
5416;SDS011;2731;50.754;12.990;2022-11-15T02:43:10;15.07;;;9.50;;
5416;SDS011;2731;50.754;12.990;2022-11-15T02:46:09;16.73;;;9.43;;
5416;SDS011;2731;50.754;12.990;2022-11-15T02:49:19;13.18;;;8.82;;
5416;SDS011;2731;50.754;12.990;2022-11-15T02:51:47;15.23;;;8.65;;
5416;SDS011;2731;50.754;12.990;2022-11-15T02:54:20;13.32;;;8.90;;
5416;SDS011;2731;50.754;12.990;2022-11-15T02:56:49;12.82;;;8.32;;
5416;SDS011;2731;50.754;12.990;2022-11-15T02:59:24;17.02;;;8.77;;
5416;SDS011;2731;50.754;12.990;2022-11-15T03:08:04;11.77;;;6.82;;
5416;SDS011;2731;50.754;12.990;2022-11-15T03:11:07;13.65;;;8.43;;
5416;SDS011;2731;50.754;12.990;2022-11-15T03:13:46;15.20;;;8.00;;
5416;SDS011;2731;50.754;12.990;2022-11-15T03:22:09;16.85;;;9.00;;
5416;SDS011;2731;50.754;12.990;2022-11-15T03:24:38;16.80;;;9.73;;
5416;SDS011;2731;50.754;12.990;2022-11-15T03:27:07;14.50;;;8.32;;
5416;SDS011;2731;50.754;12.990;2022-11-15T03:29:39;14.52;;;8.85;;
5416;SDS011;2731;50.754;12.990;2022-11-15T03:32:16;17.63;;;9.65;;
5416;SDS011;2731;50.754;12.990;2022-11-15T03:34:47;15.25;;;8.75;;
5416;SDS011;2731;50.754;12.990;2022-11-15T03:37:22;14.48;;;8.07;;
5416;SDS011;2731;50.754;12.990;2022-11-15T03:39:51;15.77;;;9.02;;
5416;SDS011;2731;50.754;12.990;2022-11-15T03:42:29;13.95;;;8.63;;
5416;SDS011;2731;50.754;12.990;2022-11-15T03:45:12;13.07;;;8.02;;
5416;SDS011;2731;50.754;12.990;2022-11-15T03:47:45;15.13;;;7.55;;
5416;SDS011;2731;50.754;12.990;2022-11-15T03:50:18;13.30;;;8.07;;
5416;SDS011;2731;50.754;12.990;2022-11-15T03:52:45;13.00;;;8.18;;
5416;SDS011;2731;50.754;12.990;2022-11-15T03:55:14;12.63;;;7.57;;
5416;SDS011;2731;50.754;12.990;2022-11-15T03:57:44;14.63;;;8.37;;
5416;SDS011;2731;50.754;12.990;2022-11-15T04:00:12;14.90;;;8.05;;
5416;SDS011;2731;50.754;12.990;2022-11-15T04:02:38;15.35;;;8.13;;
5416;SDS011;2731;50.754;12.990;2022-11-15T04:05:04;22.83;;;8.27;;
5416;SDS011;2731;50.754;12.990;2022-11-15T04:07:31;12.35;;;7.45;;
5416;SDS011;2731;50.754;12.990;2022-11-15T04:09:58;13.90;;;8.20;;
5416;SDS011;2731;50.754;12.990;2022-11-15T04:12:33;13.02;;;7.90;;
5416;SDS011;2731;50.754;12.990;2022-11-15T04:15:03;13.77;;;8.13;;
5416;SDS011;2731;50.754;12.990;2022-11-15T04:17:35;15.75;;;8.85;;
5416;SDS011;2731;50.754;12.990;2022-11-15T04:23:06;17.17;;;8.73;;
5416;SDS011;2731;50.754;12.990;2022-11-15T04:25:56;13.80;;;8.30;;
5416;SDS011;2731;50.754;12.990;2022-11-15T04:28:25;14.20;;;8.27;;
5416;SDS011;2731;50.754;12.990;2022-11-15T04:30:50;13.73;;;7.82;;
5416;SDS011;2731;50.754;12.990;2022-11-15T04:33:22;14.65;;;8.75;;
5416;SDS011;2731;50.754;12.990;2022-11-15T04:35:49;18.60;;;9.38;;
5416;SDS011;2731;50.754;12.990;2022-11-15T04:38:35;14.27;;;8.70;;
5416;SDS011;2731;50.754;12.990;2022-11-15T04:41:01;16.08;;;9.52;;
5416;SDS011;2731;50.754;12.990;2022-11-15T04:43:27;17.45;;;9.00;;
5416;SDS011;2731;50.754;12.990;2022-11-15T04:45:53;15.43;;;8.95;;
5416;SDS011;2731;50.754;12.990;2022-11-15T04:48:19;15.88;;;9.02;;
5416;SDS011;2731;50.754;12.990;2022-11-15T04:50:49;13.57;;;8.48;;
5416;SDS011;2731;50.754;12.990;2022-11-15T04:53:16;17.67;;;9.95;;
5416;SDS011;2731;50.754;12.990;2022-11-15T04:55:47;15.48;;;10.32;;
5416;SDS011;2731;50.754;12.990;2022-11-15T04:58:13;15.32;;;8.98;;
5416;SDS011;2731;50.754;12.990;2022-11-15T05:00:42;19.48;;;9.27;;
5416;SDS011;2731;50.754;12.990;2022-11-15T05:03:08;17.75;;;9.43;;
5416;SDS011;2731;50.754;12.990;2022-11-15T05:05:52;16.70;;;9.40;;
5416;SDS011;2731;50.754;12.990;2022-11-15T05:08:19;16.42;;;9.93;;
5416;SDS011;2731;50.754;12.990;2022-11-15T05:10:46;17.52;;;10.25;;
5416;SDS011;2731;50.754;12.990;2022-11-15T05:13:12;16.30;;;9.55;;
5416;SDS011;2731;50.754;12.990;2022-11-15T05:15:38;16.48;;;9.48;;
5416;SDS011;2731;50.754;12.990;2022-11-15T05:18:06;15.85;;;9.15;;
5416;SDS011;2731;50.754;12.990;2022-11-15T05:20:31;17.33;;;9.52;;
5416;SDS011;2731;50.754;12.990;2022-11-15T05:22:57;16.05;;;9.65;;
5416;SDS011;2731;50.754;12.990;2022-11-15T05:25:26;18.55;;;9.90;;
5416;SDS011;2731;50.754;12.990;2022-11-15T05:27:52;14.55;;;8.73;;
5416;SDS011;2731;50.754;12.990;2022-11-15T05:30:20;20.55;;;10.02;;
5416;SDS011;2731;50.754;12.990;2022-11-15T05:32:46;12.98;;;8.50;;
5416;SDS011;2731;50.754;12.990;2022-11-15T05:35:22;14.82;;;9.18;;
5416;SDS011;2731;50.754;12.990;2022-11-15T05:37:56;19.17;;;10.23;;
5416;SDS011;2731;50.754;12.990;2022-11-15T05:40:22;15.18;;;8.73;;
5416;SDS011;2731;50.754;12.990;2022-11-15T05:42:48;20.95;;;10.73;;
5416;SDS011;2731;50.754;12.990;2022-11-15T05:45:15;17.30;;;9.27;;
5416;SDS011;2731;50.754;12.990;2022-11-15T05:47:41;19.90;;;9.82;;
5416;SDS011;2731;50.754;12.990;2022-11-15T05:50:10;15.85;;;9.38;;
5416;SDS011;2731;50.754;12.990;2022-11-15T05:52:38;20.30;;;11.10;;
5416;SDS011;2731;50.754;12.990;2022-11-15T05:55:04;17.92;;;9.77;;
5416;SDS011;2731;50.754;12.990;2022-11-15T05:57:32;17.95;;;9.55;;
5416;SDS011;2731;50.754;12.990;2022-11-15T05:59:59;15.95;;;10.00;;
5416;SDS011;2731;50.754;12.990;2022-11-15T06:02:26;13.85;;;8.88;;
5416;SDS011;2731;50.754;12.990;2022-11-15T06:04:52;19.85;;;9.70;;
5416;SDS011;2731;50.754;12.990;2022-11-15T06:07:19;15.15;;;8.45;;
5416;SDS011;2731;50.754;12.990;2022-11-15T06:09:44;15.75;;;9.23;;
5416;SDS011;2731;50.754;12.990;2022-11-15T06:12:11;17.05;;;8.57;;
5416;SDS011;2731;50.754;12.990;2022-11-15T06:14:36;14.50;;;8.77;;
5416;SDS011;2731;50.754;12.990;2022-11-15T06:17:02;17.10;;;8.00;;
5416;SDS011;2731;50.754;12.990;2022-11-15T06:19:28;15.70;;;8.77;;
5416;SDS011;2731;50.754;12.990;2022-11-15T06:21:59;15.02;;;9.38;;
5416;SDS011;2731;50.754;12.990;2022-11-15T06:24:24;14.23;;;9.30;;
5416;SDS011;2731;50.754;12.990;2022-11-15T06:26:51;16.58;;;9.77;;
5416;SDS011;2731;50.754;12.990;2022-11-15T06:29:17;19.45;;;9.80;;
5416;SDS011;2731;50.754;12.990;2022-11-15T06:31:44;17.70;;;9.70;;
5416;SDS011;2731;50.754;12.990;2022-11-15T06:34:11;21.30;;;9.93;;
5416;SDS011;2731;50.754;12.990;2022-11-15T06:36:36;17.80;;;10.25;;
5416;SDS011;2731;50.754;12.990;2022-11-15T06:39:05;16.85;;;9.85;;
5416;SDS011;2731;50.754;12.990;2022-11-15T06:41:35;18.17;;;10.65;;
5416;SDS011;2731;50.754;12.990;2022-11-15T06:44:01;19.08;;;10.30;;
5416;SDS011;2731;50.754;12.990;2022-11-15T06:46:29;20.60;;;11.80;;
5416;SDS011;2731;50.754;12.990;2022-11-15T06:48:55;21.23;;;10.23;;
5416;SDS011;2731;50.754;12.990;2022-11-15T06:51:22;16.05;;;9.73;;
5416;SDS011;2731;50.754;12.990;2022-11-15T06:53:47;15.88;;;9.52;;
5416;SDS011;2731;50.754;12.990;2022-11-15T06:56:14;22.38;;;12.07;;
5416;SDS011;2731;50.754;12.990;2022-11-15T06:58:41;23.52;;;11.65;;
5416;SDS011;2731;50.754;12.990;2022-11-15T07:01:11;21.25;;;12.07;;
5416;SDS011;2731;50.754;12.990;2022-11-15T07:03:38;21.10;;;11.32;;
5416;SDS011;2731;50.754;12.990;2022-11-15T07:06:04;19.40;;;10.48;;
5416;SDS011;2731;50.754;12.990;2022-11-15T07:08:31;18.98;;;10.15;;
5416;SDS011;2731;50.754;12.990;2022-11-15T07:11:00;20.80;;;11.38;;
5416;SDS011;2731;50.754;12.990;2022-11-15T07:13:32;19.95;;;10.82;;
5416;SDS011;2731;50.754;12.990;2022-11-15T07:16:03;16.17;;;9.25;;
5416;SDS011;2731;50.754;12.990;2022-11-15T07:18:37;16.33;;;10.02;;
5416;SDS011;2731;50.754;12.990;2022-11-15T07:21:05;16.13;;;9.55;;
5416;SDS011;2731;50.754;12.990;2022-11-15T07:23:35;15.70;;;9.77;;
5416;SDS011;2731;50.754;12.990;2022-11-15T07:26:02;16.38;;;9.77;;
5416;SDS011;2731;50.754;12.990;2022-11-15T07:28:28;16.50;;;10.13;;
5416;SDS011;2731;50.754;12.990;2022-11-15T07:30:56;17.13;;;9.80;;
5416;SDS011;2731;50.754;12.990;2022-11-15T07:33:22;14.25;;;9.10;;
5416;SDS011;2731;50.754;12.990;2022-11-15T07:35:48;17.13;;;9.38;;
5416;SDS011;2731;50.754;12.990;2022-11-15T07:38:15;17.70;;;9.68;;
5416;SDS011;2731;50.754;12.990;2022-11-15T07:40:44;16.88;;;9.07;;
5416;SDS011;2731;50.754;12.990;2022-11-15T07:43:11;18.73;;;10.15;;
5416;SDS011;2731;50.754;12.990;2022-11-15T07:45:44;15.57;;;9.55;;
5416;SDS011;2731;50.754;12.990;2022-11-15T07:48:12;17.90;;;9.10;;
5416;SDS011;2731;50.754;12.990;2022-11-15T07:50:42;13.38;;;8.20;;
5416;SDS011;2731;50.754;12.990;2022-11-15T07:53:08;15.27;;;8.85;;
5416;SDS011;2731;50.754;12.990;2022-11-15T07:55:34;13.68;;;9.13;;
5416;SDS011;2731;50.754;12.990;2022-11-15T07:58:05;13.50;;;7.82;;
5416;SDS011;2731;50.754;12.990;2022-11-15T08:00:32;14.50;;;9.13;;
5416;SDS011;2731;50.754;12.990;2022-11-15T08:03:09;15.93;;;9.00;;
5416;SDS011;2731;50.754;12.990;2022-11-15T08:05:40;11.57;;;7.40;;
5416;SDS011;2731;50.754;12.990;2022-11-15T08:08:09;14.77;;;8.52;;
5416;SDS011;2731;50.754;12.990;2022-11-15T08:10:36;12.75;;;7.32;;
5416;SDS011;2731;50.754;12.990;2022-11-15T08:13:06;13.15;;;8.15;;
5416;SDS011;2731;50.754;12.990;2022-11-15T08:15:33;13.00;;;7.80;;
5416;SDS011;2731;50.754;12.990;2022-11-15T08:18:01;13.52;;;8.48;;
5416;SDS011;2731;50.754;12.990;2022-11-15T08:20:28;14.02;;;8.30;;
5416;SDS011;2731;50.754;12.990;2022-11-15T08:22:59;14.68;;;8.57;;
5416;SDS011;2731;50.754;12.990;2022-11-15T08:25:27;12.35;;;7.93;;
5416;SDS011;2731;50.754;12.990;2022-11-15T08:27:54;13.88;;;8.40;;
5416;SDS011;2731;50.754;12.990;2022-11-15T08:30:22;13.00;;;7.95;;
5416;SDS011;2731;50.754;12.990;2022-11-15T08:32:49;12.93;;;8.15;;
5416;SDS011;2731;50.754;12.990;2022-11-15T08:35:17;12.13;;;6.88;;
5416;SDS011;2731;50.754;12.990;2022-11-15T08:37:46;10.55;;;6.95;;
5416;SDS011;2731;50.754;12.990;2022-11-15T08:40:11;10.20;;;6.35;;
5416;SDS011;2731;50.754;12.990;2022-11-15T08:42:39;9.48;;;5.97;;
5416;SDS011;2731;50.754;12.990;2022-11-15T08:45:05;10.93;;;7.40;;
5416;SDS011;2731;50.754;12.990;2022-11-15T08:47:34;13.07;;;7.18;;
5416;SDS011;2731;50.754;12.990;2022-11-15T08:50:01;8.93;;;6.38;;
5416;SDS011;2731;50.754;12.990;2022-11-15T08:52:27;11.25;;;6.88;;
5416;SDS011;2731;50.754;12.990;2022-11-15T08:54:53;9.63;;;6.60;;
5416;SDS011;2731;50.754;12.990;2022-11-15T08:57:20;10.20;;;6.05;;
5416;SDS011;2731;50.754;12.990;2022-11-15T08:59:45;9.00;;;6.38;;
5416;SDS011;2731;50.754;12.990;2022-11-15T09:02:11;10.38;;;6.00;;
5416;SDS011;2731;50.754;12.990;2022-11-15T09:04:42;9.60;;;6.03;;
5416;SDS011;2731;50.754;12.990;2022-11-15T09:07:10;8.98;;;5.05;;
5416;SDS011;2731;50.754;12.990;2022-11-15T09:09:37;7.45;;;5.35;;
5416;SDS011;2731;50.754;12.990;2022-11-15T09:12:04;8.45;;;5.43;;
5416;SDS011;2731;50.754;12.990;2022-11-15T09:14:31;8.40;;;4.85;;
5416;SDS011;2731;50.754;12.990;2022-11-15T09:16:58;9.15;;;5.47;;
5416;SDS011;2731;50.754;12.990;2022-11-15T09:19:25;8.90;;;4.97;;
5416;SDS011;2731;50.754;12.990;2022-11-15T09:21:51;9.65;;;5.70;;
5416;SDS011;2731;50.754;12.990;2022-11-15T09:24:18;7.72;;;5.00;;
5416;SDS011;2731;50.754;12.990;2022-11-15T09:26:45;9.32;;;5.40;;
5416;SDS011;2731;50.754;12.990;2022-11-15T09:29:15;7.45;;;5.20;;
5416;SDS011;2731;50.754;12.990;2022-11-15T09:31:47;7.50;;;5.18;;
5416;SDS011;2731;50.754;12.990;2022-11-15T09:34:13;7.28;;;4.88;;
5416;SDS011;2731;50.754;12.990;2022-11-15T09:36:40;5.88;;;4.40;;
5416;SDS011;2731;50.754;12.990;2022-11-15T09:39:06;8.50;;;5.43;;
5416;SDS011;2731;50.754;12.990;2022-11-15T09:44:47;6.45;;;4.53;;
5416;SDS011;2731;50.754;12.990;2022-11-15T09:50:14;6.97;;;4.55;;
5416;SDS011;2731;50.754;12.990;2022-11-15T09:52:44;7.65;;;4.90;;
5416;SDS011;2731;50.754;12.990;2022-11-15T09:55:10;6.65;;;4.30;;
5416;SDS011;2731;50.754;12.990;2022-11-15T09:57:58;6.65;;;4.57;;
5416;SDS011;2731;50.754;12.990;2022-11-15T10:00:42;8.88;;;5.30;;
5416;SDS011;2731;50.754;12.990;2022-11-15T10:06:23;6.75;;;4.13;;
5416;SDS011;2731;50.754;12.990;2022-11-15T10:08:59;7.13;;;4.30;;
5416;SDS011;2731;50.754;12.990;2022-11-15T10:11:35;8.02;;;4.00;;
5416;SDS011;2731;50.754;12.990;2022-11-15T10:14:05;7.07;;;4.60;;
5416;SDS011;2731;50.754;12.990;2022-11-15T10:22:30;5.72;;;3.78;;
5416;SDS011;2731;50.754;12.990;2022-11-15T10:27:39;4.32;;;3.55;;
5416;SDS011;2731;50.754;12.990;2022-11-15T10:30:13;5.60;;;3.38;;
5416;SDS011;2731;50.754;12.990;2022-11-15T10:32:42;4.60;;;3.05;;
5416;SDS011;2731;50.754;12.990;2022-11-15T10:35:16;5.43;;;3.25;;
5416;SDS011;2731;50.754;12.990;2022-11-15T10:38:06;5.25;;;2.72;;
5416;SDS011;2731;50.754;12.990;2022-11-15T10:40:37;4.68;;;2.67;;
5416;SDS011;2731;50.754;12.990;2022-11-15T10:43:17;5.05;;;2.90;;
5416;SDS011;2731;50.754;12.990;2022-11-15T10:45:44;4.07;;;2.65;;
5416;SDS011;2731;50.754;12.990;2022-11-15T10:50:46;4.75;;;2.92;;
5416;SDS011;2731;50.754;12.990;2022-11-15T10:53:23;4.20;;;2.58;;
5416;SDS011;2731;50.754;12.990;2022-11-15T10:55:52;3.13;;;2.35;;
5416;SDS011;2731;50.754;12.990;2022-11-15T10:58:40;3.38;;;2.15;;
5416;SDS011;2731;50.754;12.990;2022-11-15T11:01:12;4.13;;;2.45;;
5416;SDS011;2731;50.754;12.990;2022-11-15T11:03:40;3.70;;;2.38;;
5416;SDS011;2731;50.754;12.990;2022-11-15T11:06:11;2.72;;;2.08;;
5416;SDS011;2731;50.754;12.990;2022-11-15T11:09:05;2.45;;;2.05;;
5416;SDS011;2731;50.754;12.990;2022-11-15T11:11:48;3.17;;;1.80;;
5416;SDS011;2731;50.754;12.990;2022-11-15T11:14:24;3.78;;;2.17;;
5416;SDS011;2731;50.754;12.990;2022-11-15T11:25:35;4.72;;;2.72;;
5416;SDS011;2731;50.754;12.990;2022-11-15T11:28:21;2.97;;;2.10;;
5416;SDS011;2731;50.754;12.990;2022-11-15T11:34:15;3.93;;;2.57;;
5416;SDS011;2731;50.754;12.990;2022-11-15T11:36:49;2.35;;;1.70;;
5416;SDS011;2731;50.754;12.990;2022-11-15T11:42:30;4.65;;;2.22;;
5416;SDS011;2731;50.754;12.990;2022-11-15T11:45:30;2.83;;;1.85;;
5416;SDS011;2731;50.754;12.990;2022-11-15T11:51:18;4.65;;;3.03;;
5416;SDS011;2731;50.754;12.990;2022-11-15T11:54:28;3.97;;;2.60;;
5416;SDS011;2731;50.754;12.990;2022-11-15T11:57:13;5.53;;;3.33;;
5416;SDS011;2731;50.754;12.990;2022-11-15T11:59:51;3.78;;;2.70;;
5416;SDS011;2731;50.754;12.990;2022-11-15T12:02:37;4.88;;;3.13;;
5416;SDS011;2731;50.754;12.990;2022-11-15T12:08:21;3.35;;;2.20;;
5416;SDS011;2731;50.754;12.990;2022-11-15T12:13:50;2.45;;;1.92;;
5416;SDS011;2731;50.754;12.990;2022-11-15T12:16:23;5.60;;;2.20;;
5416;SDS011;2731;50.754;12.990;2022-11-15T12:19:00;2.83;;;1.90;;
5416;SDS011;2731;50.754;12.990;2022-11-15T12:24:19;6.18;;;1.67;;
5416;SDS011;2731;50.754;12.990;2022-11-15T12:27:05;2.20;;;1.75;;
5416;SDS011;2731;50.754;12.990;2022-11-15T12:29:43;3.03;;;1.83;;
5416;SDS011;2731;50.754;12.990;2022-11-15T12:32:35;2.95;;;1.70;;
5416;SDS011;2731;50.754;12.990;2022-11-15T12:35:00;3.13;;;1.52;;
5416;SDS011;2731;50.754;12.990;2022-11-15T12:40:21;3.72;;;1.70;;
5416;SDS011;2731;50.754;12.990;2022-11-15T12:43:00;4.20;;;1.85;;
5416;SDS011;2731;50.754;12.990;2022-11-15T12:45:43;2.75;;;1.60;;
5416;SDS011;2731;50.754;12.990;2022-11-15T12:51:05;3.55;;;1.75;;
5416;SDS011;2731;50.754;12.990;2022-11-15T12:53:31;2.08;;;1.55;;
5416;SDS011;2731;50.754;12.990;2022-11-15T12:58:49;1.90;;;1.50;;
5416;SDS011;2731;50.754;12.990;2022-11-15T13:04:23;3.30;;;1.90;;
5416;SDS011;2731;50.754;12.990;2022-11-15T13:06:52;2.00;;;1.42;;
5416;SDS011;2731;50.754;12.990;2022-11-15T13:14:50;2.70;;;1.48;;
5416;SDS011;2731;50.754;12.990;2022-11-15T13:19:52;2.25;;;1.38;;
5416;SDS011;2731;50.754;12.990;2022-11-15T13:22:18;3.05;;;1.27;;
5416;SDS011;2731;50.754;12.990;2022-11-15T13:25:03;1.67;;;1.17;;
5416;SDS011;2731;50.754;12.990;2022-11-15T13:27:30;1.52;;;1.20;;
5416;SDS011;2731;50.754;12.990;2022-11-15T13:29:56;2.08;;;1.40;;
5416;SDS011;2731;50.754;12.990;2022-11-15T13:32:23;3.97;;;1.55;;
5416;SDS011;2731;50.754;12.990;2022-11-15T13:34:50;4.85;;;1.80;;
5416;SDS011;2731;50.754;12.990;2022-11-15T13:37:27;1.30;;;1.10;;
5416;SDS011;2731;50.754;12.990;2022-11-15T13:39:57;2.95;;;1.88;;
5416;SDS011;2731;50.754;12.990;2022-11-15T13:42:41;5.47;;;2.30;;
5416;SDS011;2731;50.754;12.990;2022-11-15T13:45:11;5.85;;;2.88;;
5416;SDS011;2731;50.754;12.990;2022-11-15T13:47:39;5.10;;;2.42;;
5416;SDS011;2731;50.754;12.990;2022-11-15T13:50:09;5.57;;;2.92;;
5416;SDS011;2731;50.754;12.990;2022-11-15T13:52:36;5.95;;;2.38;;
5416;SDS011;2731;50.754;12.990;2022-11-15T13:55:15;1.92;;;1.40;;
5416;SDS011;2731;50.754;12.990;2022-11-15T14:00:34;2.25;;;1.27;;
5416;SDS011;2731;50.754;12.990;2022-11-15T14:05:44;1.95;;;1.50;;
5416;SDS011;2731;50.754;12.990;2022-11-15T14:08:26;1.67;;;1.17;;
5416;SDS011;2731;50.754;12.990;2022-11-15T14:16:36;1.50;;;1.00;;
5416;SDS011;2731;50.754;12.990;2022-11-15T14:19:04;1.45;;;1.10;;
5416;SDS011;2731;50.754;12.990;2022-11-15T14:21:31;1.88;;;1.35;;
5416;SDS011;2731;50.754;12.990;2022-11-15T14:24:15;2.35;;;1.33;;
5416;SDS011;2731;50.754;12.990;2022-11-15T14:26:46;2.83;;;1.10;;
5416;SDS011;2731;50.754;12.990;2022-11-15T14:29:26;1.58;;;1.10;;
5416;SDS011;2731;50.754;12.990;2022-11-15T14:34:54;1.33;;;1.13;;
5416;SDS011;2731;50.754;12.990;2022-11-15T14:37:25;2.92;;;1.17;;
5416;SDS011;2731;50.754;12.990;2022-11-15T14:39:54;3.83;;;1.42;;
5416;SDS011;2731;50.754;12.990;2022-11-15T14:42:23;1.70;;;1.15;;
5416;SDS011;2731;50.754;12.990;2022-11-15T14:44:51;1.80;;;1.30;;
5416;SDS011;2731;50.754;12.990;2022-11-15T14:47:18;2.35;;;1.20;;
5416;SDS011;2731;50.754;12.990;2022-11-15T14:49:43;2.95;;;1.50;;
5416;SDS011;2731;50.754;12.990;2022-11-15T14:55:01;2.30;;;1.17;;
5416;SDS011;2731;50.754;12.990;2022-11-15T14:57:28;1.35;;;1.10;;
5416;SDS011;2731;50.754;12.990;2022-11-15T14:59:55;1.92;;;1.50;;
5416;SDS011;2731;50.754;12.990;2022-11-15T15:02:25;2.75;;;1.45;;
5416;SDS011;2731;50.754;12.990;2022-11-15T15:04:55;2.35;;;1.23;;
5416;SDS011;2731;50.754;12.990;2022-11-15T15:07:21;1.65;;;1.00;;
5416;SDS011;2731;50.754;12.990;2022-11-15T15:09:48;3.85;;;2.10;;
5416;SDS011;2731;50.754;12.990;2022-11-15T15:12:16;2.47;;;0.90;;
5416;SDS011;2731;50.754;12.990;2022-11-15T15:14:49;2.47;;;1.30;;
5416;SDS011;2731;50.754;12.990;2022-11-15T15:17:16;2.03;;;1.23;;
5416;SDS011;2731;50.754;12.990;2022-11-15T15:19:42;2.33;;;1.50;;
5416;SDS011;2731;50.754;12.990;2022-11-15T15:22:13;2.35;;;1.10;;
5416;SDS011;2731;50.754;12.990;2022-11-15T15:24:45;2.70;;;1.73;;
5416;SDS011;2731;50.754;12.990;2022-11-15T15:27:20;1.92;;;1.38;;
5416;SDS011;2731;50.754;12.990;2022-11-15T15:29:46;2.67;;;1.60;;
5416;SDS011;2731;50.754;12.990;2022-11-15T15:32:12;2.58;;;1.52;;
5416;SDS011;2731;50.754;12.990;2022-11-15T15:34:38;2.63;;;1.60;;
5416;SDS011;2731;50.754;12.990;2022-11-15T15:39:54;2.20;;;1.58;;
5416;SDS011;2731;50.754;12.990;2022-11-15T15:42:22;6.27;;;2.10;;
5416;SDS011;2731;50.754;12.990;2022-11-15T15:44:49;2.88;;;1.80;;
5416;SDS011;2731;50.754;12.990;2022-11-15T15:47:20;5.30;;;2.35;;
5416;SDS011;2731;50.754;12.990;2022-11-15T15:49:50;6.03;;;2.70;;
5416;SDS011;2731;50.754;12.990;2022-11-15T15:52:20;5.82;;;3.33;;
5416;SDS011;2731;50.754;12.990;2022-11-15T15:54:45;7.13;;;3.67;;
5416;SDS011;2731;50.754;12.990;2022-11-15T15:57:12;5.63;;;3.10;;
5416;SDS011;2731;50.754;12.990;2022-11-15T15:59:39;5.22;;;2.65;;
5416;SDS011;2731;50.754;12.990;2022-11-15T16:02:05;7.68;;;2.88;;
5416;SDS011;2731;50.754;12.990;2022-11-15T16:04:31;5.10;;;3.13;;
5416;SDS011;2731;50.754;12.990;2022-11-15T16:06:59;4.25;;;2.70;;
5416;SDS011;2731;50.754;12.990;2022-11-15T16:09:26;3.72;;;2.25;;
5416;SDS011;2731;50.754;12.990;2022-11-15T16:12:10;4.15;;;2.50;;
5416;SDS011;2731;50.754;12.990;2022-11-15T16:14:37;6.38;;;2.53;;
5416;SDS011;2731;50.754;12.990;2022-11-15T16:17:04;6.80;;;2.88;;
5416;SDS011;2731;50.754;12.990;2022-11-15T16:19:32;5.68;;;2.80;;
5416;SDS011;2731;50.754;12.990;2022-11-15T16:21:57;4.28;;;2.97;;
5416;SDS011;2731;50.754;12.990;2022-11-15T16:24:25;5.95;;;3.58;;
5416;SDS011;2731;50.754;12.990;2022-11-15T16:26:50;6.60;;;4.18;;
5416;SDS011;2731;50.754;12.990;2022-11-15T16:29:16;6.28;;;3.63;;
5416;SDS011;2731;50.754;12.990;2022-11-15T16:31:42;6.13;;;3.85;;
